Česky Dansk Deutsch English Español Suomi Français Magyar Italiano Nederlands norsk Polski Português svenska Türkçe

 

Het Weer

Topel Tur-Afb (Türkei)

07:50, 19 August 2016 (GMT)

NWNNE
WE
SWSSE
Home            
Topel Tur-Afb Istanbul / Sabiha Gokcen Bursa / Yenisehir, Mil-Civ Bursa Istanbul / Ataturk Eskisehir Zonguldak Sivrihisar Bandirma Corlu Balikesir Murted Tur-Afb Afyon Usak Ankara / Etimesgut Ankara / Guvercin Lik Ankara / Esenboga Akhisar Burgas Canakkale Suleyman Demirel Varna Cardak

Om een weerknop op uw website of weblog te plaatsen, copieer onderstaande code en plak die in uw pagina. In het eerste vakje staat HTML-code, in het tweede vakje UBB-code.


Add to Google

Details

Wind speed:2 bf, 5 kn, 2.6 m/s, 5.8 miles/h, 9.3 km/h
Wind direction:NE, 050° - SSE, 160°
Sichtweite:Weiter als 10000 m, 10 km, 32800 ft, 6.2 miles
Clouds:Aufgelockert bewölkt at 3500 ft, 1067 m
Temperatur:26°C, 79°F
Gefühlte Temperatur:27°C, 81°F
Taupunkt:20°C, 68°F
Luftdruck:1011 hPa, 758.3 mmHg, 29.85 inHg, 0.998 atm
Relative Luftfeuchtigkeit:69.6 %
METAR:LTBQ 190750Z 11005KT 050V160 9999 SCT035 26/20 Q1011 NOSIG

Snelkoppelingen

Actuele weersinformatie van de hele wereld. Voeg locaties toe met het plus (+) symbool. Deze snelkoppelingen kunnen worden toegevoegd aan Google.

Lid van de Technetium groep

website free tracking
StatCounter NetStat W3C Validator

09-08-2022 09:56:18
astro.technetium.be money.technetium.be phote.technetium.be tafeltennistafel.technetium.be www.ligfiets.net